sensor_id;sensor_type;location;lat;lon;timestamp;pressure;altitude;pressure_sealevel;temperature;humidity
52855;BME280;38719;51.418;7.286;2023-03-24T00:00:22;98368.00;;;12.56;77.01
52855;BME280;38719;51.418;7.286;2023-03-24T00:02:50;98370.91;;;12.53;78.34
52855;BME280;38719;51.418;7.286;2023-03-24T00:05:21;98355.25;;;12.60;76.80
52855;BME280;38719;51.418;7.286;2023-03-24T00:07:49;98362.03;;;12.41;78.65
52855;BME280;38719;51.418;7.286;2023-03-24T00:10:19;98352.97;;;12.55;78.16
52855;BME280;38719;51.418;7.286;2023-03-24T00:12:48;98354.41;;;12.59;77.34
52855;BME280;38719;51.418;7.286;2023-03-24T00:15:17;98341.41;;;12.54;77.31
52855;BME280;38719;51.418;7.286;2023-03-24T00:17:46;98351.88;;;12.46;77.71
52855;BME280;38719;51.418;7.286;2023-03-24T00:20:17;98330.59;;;12.45;78.01
52855;BME280;38719;51.418;7.286;2023-03-24T00:22:48;98345.41;;;12.37;79.00
52855;BME280;38719;51.418;7.286;2023-03-24T00:25:18;98330.50;;;12.46;78.06
52855;BME280;38719;51.418;7.286;2023-03-24T00:27:47;98330.59;;;12.45;79.51
52855;BME280;38719;51.418;7.286;2023-03-24T00:30:16;98329.66;;;12.46;78.35
52855;BME280;38719;51.418;7.286;2023-03-24T00:32:44;98316.56;;;12.43;78.49
52855;BME280;38719;51.418;7.286;2023-03-24T00:35:14;98317.66;;;12.51;78.71
52855;BME280;38719;51.418;7.286;2023-03-24T00:37:43;98316.41;;;12.55;78.29
52855;BME280;38719;51.418;7.286;2023-03-24T00:40:14;98314.00;;;12.52;78.58
52855;BME280;38719;51.418;7.286;2023-03-24T00:42:43;98313.97;;;12.41;78.73
52855;BME280;38719;51.418;7.286;2023-03-24T00:45:14;98301.50;;;12.53;78.51
52855;BME280;38719;51.418;7.286;2023-03-24T00:47:41;98296.50;;;12.60;77.98
52855;BME280;38719;51.418;7.286;2023-03-24T00:50:13;98294.22;;;12.66;78.24
52855;BME280;38719;51.418;7.286;2023-03-24T00:52:42;98279.16;;;12.65;77.72
52855;BME280;38719;51.418;7.286;2023-03-24T00:55:15;98276.22;;;12.68;77.96
52855;BME280;38719;51.418;7.286;2023-03-24T00:57:44;98271.00;;;12.67;77.88
52855;BME280;38719;51.418;7.286;2023-03-24T01:00:17;98279.03;;;12.55;78.03
52855;BME280;38719;51.418;7.286;2023-03-24T01:02:46;98265.34;;;12.60;77.55
52855;BME280;38719;51.418;7.286;2023-03-24T01:05:19;98259.38;;;12.56;78.48
52855;BME280;38719;51.418;7.286;2023-03-24T01:07:47;98264.25;;;12.51;78.68
52855;BME280;38719;51.418;7.286;2023-03-24T01:10:20;98247.34;;;12.73;78.74
52855;BME280;38719;51.418;7.286;2023-03-24T01:12:54;98252.06;;;12.81;78.05
52855;BME280;38719;51.418;7.286;2023-03-24T01:15:28;98247.84;;;12.67;77.30
52855;BME280;38719;51.418;7.286;2023-03-24T01:17:55;98255.47;;;12.72;78.16
52855;BME280;38719;51.418;7.286;2023-03-24T01:20:23;98250.63;;;12.77;77.64
52855;BME280;38719;51.418;7.286;2023-03-24T01:22:51;98242.09;;;12.83;77.81
52855;BME280;38719;51.418;7.286;2023-03-24T01:25:21;98253.16;;;12.79;77.48
52855;BME280;38719;51.418;7.286;2023-03-24T01:27:50;98247.81;;;12.79;78.23
52855;BME280;38719;51.418;7.286;2023-03-24T01:30:21;98257.16;;;12.73;77.55
52855;BME280;38719;51.418;7.286;2023-03-24T01:32:50;98246.34;;;12.74;78.39
52855;BME280;38719;51.418;7.286;2023-03-24T01:35:19;98252.78;;;12.72;78.68
52855;BME280;38719;51.418;7.286;2023-03-24T01:37:47;98251.34;;;12.68;78.78
52855;BME280;38719;51.418;7.286;2023-03-24T01:40:17;98245.38;;;12.76;78.80
52855;BME280;38719;51.418;7.286;2023-03-24T01:42:47;98251.00;;;12.61;78.82
52855;BME280;38719;51.418;7.286;2023-03-24T01:45:42;98239.94;;;12.77;79.29
52855;BME280;38719;51.418;7.286;2023-03-24T01:48:12;98226.78;;;12.85;77.89
52855;BME280;38719;51.418;7.286;2023-03-24T01:50:44;98240.28;;;12.84;78.53
52855;BME280;38719;51.418;7.286;2023-03-24T01:53:12;98214.31;;;12.74;78.80
52855;BME280;38719;51.418;7.286;2023-03-24T01:55:41;98205.69;;;12.82;78.42
52855;BME280;38719;51.418;7.286;2023-03-24T01:58:11;98193.53;;;12.78;78.64
52855;BME280;38719;51.418;7.286;2023-03-24T02:00:38;98196.84;;;12.70;78.87
52855;BME280;38719;51.418;7.286;2023-03-24T02:03:09;98180.22;;;12.67;78.61
52855;BME280;38719;51.418;7.286;2023-03-24T02:05:38;98169.91;;;12.73;78.41
52855;BME280;38719;51.418;7.286;2023-03-24T02:08:10;98173.44;;;12.63;78.54
52855;BME280;38719;51.418;7.286;2023-03-24T02:10:41;98163.25;;;12.56;79.97
52855;BME280;38719;51.418;7.286;2023-03-24T02:13:11;98160.97;;;12.52;79.27
52855;BME280;38719;51.418;7.286;2023-03-24T02:15:46;98144.31;;;12.60;79.52
52855;BME280;38719;51.418;7.286;2023-03-24T02:18:24;98130.34;;;12.67;79.02
52855;BME280;38719;51.418;7.286;2023-03-24T02:21:17;98134.34;;;12.62;80.03
52855;BME280;38719;51.418;7.286;2023-03-24T02:24:09;98140.84;;;12.48;80.44
52855;BME280;38719;51.418;7.286;2023-03-24T02:26:47;98132.19;;;12.55;80.11
52855;BME280;38719;51.418;7.286;2023-03-24T02:29:40;98130.72;;;12.63;80.48
52855;BME280;38719;51.418;7.286;2023-03-24T02:32:37;98132.94;;;12.57;80.09
52855;BME280;38719;51.418;7.286;2023-03-24T02:35:24;98124.31;;;12.54;80.73
52855;BME280;38719;51.418;7.286;2023-03-24T02:38:17;98112.78;;;12.53;81.04
52855;BME280;38719;51.418;7.286;2023-03-24T02:40:56;98109.94;;;12.66;80.18
52855;BME280;38719;51.418;7.286;2023-03-24T02:43:35;98113.31;;;12.68;80.26
52855;BME280;38719;51.418;7.286;2023-03-24T02:46:10;98113.41;;;12.78;79.93
52855;BME280;38719;51.418;7.286;2023-03-24T02:48:51;98101.06;;;12.77;79.98
52855;BME280;38719;51.418;7.286;2023-03-24T02:51:25;98093.28;;;12.74;80.20
52855;BME280;38719;51.418;7.286;2023-03-24T02:54:00;98092.91;;;12.79;80.69
52855;BME280;38719;51.418;7.286;2023-03-24T02:56:37;98091.00;;;12.90;79.55
52855;BME280;38719;51.418;7.286;2023-03-24T02:59:06;98089.06;;;12.93;79.55
52855;BME280;38719;51.418;7.286;2023-03-24T03:01:39;98085.66;;;12.90;79.75
52855;BME280;38719;51.418;7.286;2023-03-24T03:04:12;98085.03;;;12.77;79.98
52855;BME280;38719;51.418;7.286;2023-03-24T03:06:44;98078.16;;;12.84;79.27
52855;BME280;38719;51.418;7.286;2023-03-24T03:09:16;98075.25;;;12.87;79.40
52855;BME280;38719;51.418;7.286;2023-03-24T03:11:47;98086.00;;;12.76;80.13
52855;BME280;38719;51.418;7.286;2023-03-24T03:14:19;98073.34;;;12.78;80.67
52855;BME280;38719;51.418;7.286;2023-03-24T03:16:52;98072.00;;;12.84;80.39
52855;BME280;38719;51.418;7.286;2023-03-24T03:19:29;98075.25;;;12.87;80.06
52855;BME280;38719;51.418;7.286;2023-03-24T03:21:59;98075.41;;;12.74;79.72
52855;BME280;38719;51.418;7.286;2023-03-24T03:24:31;98058.94;;;12.69;80.18
52855;BME280;38719;51.418;7.286;2023-03-24T03:27:06;98063.38;;;12.80;80.04
52855;BME280;38719;51.418;7.286;2023-03-24T03:29:38;98058.56;;;12.74;80.08
52855;BME280;38719;51.418;7.286;2023-03-24T03:32:08;98066.13;;;12.69;80.98
52855;BME280;38719;51.418;7.286;2023-03-24T03:34:43;98070.81;;;12.77;80.42
52855;BME280;38719;51.418;7.286;2023-03-24T03:37:19;98072.72;;;12.86;79.65
52855;BME280;38719;51.418;7.286;2023-03-24T03:39:53;98076.38;;;12.85;79.94
52855;BME280;38719;51.418;7.286;2023-03-24T03:42:23;98069.50;;;12.71;80.72
52855;BME280;38719;51.418;7.286;2023-03-24T03:44:51;98069.00;;;12.77;80.05
52855;BME280;38719;51.418;7.286;2023-03-24T03:47:19;98071.41;;;12.80;80.21
52855;BME280;38719;51.418;7.286;2023-03-24T03:49:48;98072.66;;;12.76;80.64
52855;BME280;38719;51.418;7.286;2023-03-24T03:52:17;98078.16;;;12.84;80.85
52855;BME280;38719;51.418;7.286;2023-03-24T03:54:44;98069.19;;;12.85;80.55
52855;BME280;38719;51.418;7.286;2023-03-24T03:57:13;98075.50;;;12.84;80.54
52855;BME280;38719;51.418;7.286;2023-03-24T03:59:42;98074.06;;;12.80;81.25
52855;BME280;38719;51.418;7.286;2023-03-24T04:02:27;98074.97;;;12.90;82.07
52855;BME280;38719;51.418;7.286;2023-03-24T04:05:15;98079.81;;;12.97;81.95
52855;BME280;38719;51.418;7.286;2023-03-24T04:08:12;98079.81;;;12.97;81.72
52855;BME280;38719;51.418;7.286;2023-03-24T04:13:38;98100.56;;;12.72;82.67
52855;BME280;38719;51.418;7.286;2023-03-24T04:16:19;98109.44;;;12.72;82.64
52855;BME280;38719;51.418;7.286;2023-03-24T04:18:56;98103.75;;;12.66;83.10
52855;BME280;38719;51.418;7.286;2023-03-24T04:21:34;98095.44;;;12.80;83.32
52855;BME280;38719;51.418;7.286;2023-03-24T04:24:16;98094.25;;;12.73;82.69
52855;BME280;38719;51.418;7.286;2023-03-24T04:26:55;98091.53;;;12.84;82.88
52855;BME280;38719;51.418;7.286;2023-03-24T04:29:30;98094.09;;;12.86;82.72
52855;BME280;38719;51.418;7.286;2023-03-24T04:32:03;98094.91;;;12.86;82.92
52855;BME280;38719;51.418;7.286;2023-03-24T04:34:34;98103.22;;;12.83;82.41
52855;BME280;38719;51.418;7.286;2023-03-24T04:37:07;98105.38;;;12.78;83.34
52855;BME280;38719;51.418;7.286;2023-03-24T04:39:40;98095.97;;;12.95;82.17
52855;BME280;38719;51.418;7.286;2023-03-24T04:42:13;98126.25;;;13.05;82.30
52855;BME280;38719;51.418;7.286;2023-03-24T04:44:43;98143.88;;;13.08;81.63
52855;BME280;38719;51.418;7.286;2023-03-24T04:47:12;98131.56;;;12.96;83.48
52855;BME280;38719;51.418;7.286;2023-03-24T04:49:40;98154.22;;;13.01;82.25
52855;BME280;38719;51.418;7.286;2023-03-24T04:52:08;98146.91;;;12.82;84.52
52855;BME280;38719;51.418;7.286;2023-03-24T04:54:35;98132.59;;;12.83;84.22
52855;BME280;38719;51.418;7.286;2023-03-24T04:57:03;98142.16;;;12.86;83.06
52855;BME280;38719;51.418;7.286;2023-03-24T04:59:31;98146.41;;;12.88;82.96
52855;BME280;38719;51.418;7.286;2023-03-24T05:02:00;98150.00;;;12.66;83.26
52855;BME280;38719;51.418;7.286;2023-03-24T05:04:28;98154.72;;;12.74;82.93
52855;BME280;38719;51.418;7.286;2023-03-24T05:06:56;98164.56;;;12.62;82.83
52855;BME280;38719;51.418;7.286;2023-03-24T05:09:24;98169.41;;;12.68;82.14
52855;BME280;38719;51.418;7.286;2023-03-24T05:11:52;98168.06;;;12.74;82.03
52855;BME280;38719;51.418;7.286;2023-03-24T05:14:19;98181.59;;;12.94;81.25
52855;BME280;38719;51.418;7.286;2023-03-24T05:16:47;98191.34;;;12.83;81.16
52855;BME280;38719;51.418;7.286;2023-03-24T05:19:14;98195.91;;;12.60;80.21
52855;BME280;38719;51.418;7.286;2023-03-24T05:21:43;98184.75;;;12.44;80.47
52855;BME280;38719;51.418;7.286;2023-03-24T05:24:12;98204.78;;;12.49;81.11
52855;BME280;38719;51.418;7.286;2023-03-24T05:26:40;98210.56;;;12.66;80.18
52855;BME280;38719;51.418;7.286;2023-03-24T05:29:07;98208.53;;;12.58;79.79
52855;BME280;38719;51.418;7.286;2023-03-24T05:31:35;98220.09;;;12.36;80.60
52855;BME280;38719;51.418;7.286;2023-03-24T05:34:02;98219.94;;;12.37;80.45
52855;BME280;38719;51.418;7.286;2023-03-24T05:36:30;98228.94;;;12.25;80.68
52855;BME280;38719;51.418;7.286;2023-03-24T05:38:58;98237.44;;;12.30;79.54
52855;BME280;38719;51.418;7.286;2023-03-24T05:41:26;98241.56;;;12.34;79.93
52855;BME280;38719;51.418;7.286;2023-03-24T05:43:53;98256.84;;;12.32;79.19
52855;BME280;38719;51.418;7.286;2023-03-24T05:46:21;98263.75;;;12.35;77.64
52855;BME280;38719;51.418;7.286;2023-03-24T05:48:51;98282.91;;;12.29;78.81
52855;BME280;38719;51.418;7.286;2023-03-24T05:51:19;98290.94;;;12.17;78.35
52855;BME280;38719;51.418;7.286;2023-03-24T05:53:47;98308.16;;;12.24;78.30
52855;BME280;38719;51.418;7.286;2023-03-24T05:56:15;98301.59;;;12.29;77.95
52855;BME280;38719;51.418;7.286;2023-03-24T05:58:43;98299.41;;;12.22;78.25
52855;BME280;38719;51.418;7.286;2023-03-24T06:01:11;98303.41;;;12.05;79.02
52855;BME280;38719;51.418;7.286;2023-03-24T06:03:38;98318.91;;;12.00;78.66
52855;BME280;38719;51.418;7.286;2023-03-24T06:06:07;98328.75;;;12.11;79.63
52855;BME280;38719;51.418;7.286;2023-03-24T06:08:35;98331.19;;;12.03;78.15
52855;BME280;38719;51.418;7.286;2023-03-24T06:11:03;98335.03;;;11.99;78.74
52855;BME280;38719;51.418;7.286;2023-03-24T06:13:33;98334.81;;;12.02;77.78
52855;BME280;38719;51.418;7.286;2023-03-24T06:16:01;98347.41;;;12.00;77.42
52855;BME280;38719;51.418;7.286;2023-03-24T06:18:29;98345.31;;;11.92;75.91
52855;BME280;38719;51.418;7.286;2023-03-24T06:20:57;98355.03;;;11.69;75.81
52855;BME280;38719;51.418;7.286;2023-03-24T06:23:25;98369.63;;;11.76;75.51
52855;BME280;38719;51.418;7.286;2023-03-24T06:25:55;98370.22;;;11.68;75.65
52855;BME280;38719;51.418;7.286;2023-03-24T06:28:23;98367.38;;;11.58;75.71
52855;BME280;38719;51.418;7.286;2023-03-24T06:30:52;98372.16;;;11.53;75.98
52855;BME280;38719;51.418;7.286;2023-03-24T06:33:22;98363.97;;;11.56;76.21
52855;BME280;38719;51.418;7.286;2023-03-24T06:35:51;98358.16;;;11.63;75.65
52855;BME280;38719;51.418;7.286;2023-03-24T06:38:18;98362.28;;;11.67;76.31
52855;BME280;38719;51.418;7.286;2023-03-24T06:40:47;98376.19;;;11.83;74.95
52855;BME280;38719;51.418;7.286;2023-03-24T06:43:14;98378.88;;;11.83;75.00
52855;BME280;38719;51.418;7.286;2023-03-24T06:45:43;98381.03;;;11.54;75.34
52855;BME280;38719;51.418;7.286;2023-03-24T06:48:13;98375.44;;;11.81;74.82
52855;BME280;38719;51.418;7.286;2023-03-24T06:50:40;98388.00;;;11.92;74.01
52855;BME280;38719;51.418;7.286;2023-03-24T06:53:08;98404.66;;;11.83;75.49
52855;BME280;38719;51.418;7.286;2023-03-24T06:55:36;98412.63;;;11.96;74.72
52855;BME280;38719;51.418;7.286;2023-03-24T06:58:03;98415.09;;;12.10;74.82
52855;BME280;38719;51.418;7.286;2023-03-24T07:00:31;98408.69;;;11.88;72.71
52855;BME280;38719;51.418;7.286;2023-03-24T07:02:59;98406.88;;;11.89;71.83
52855;BME280;38719;51.418;7.286;2023-03-24T07:05:29;98415.44;;;11.57;71.68
52855;BME280;38719;51.418;7.286;2023-03-24T07:07:57;98407.13;;;11.61;70.21
52855;BME280;38719;51.418;7.286;2023-03-24T07:10:27;98411.94;;;11.56;71.47
52855;BME280;38719;51.418;7.286;2023-03-24T07:12:55;98411.63;;;11.61;69.59
52855;BME280;38719;51.418;7.286;2023-03-24T07:15:22;98420.53;;;11.36;70.80
52855;BME280;38719;51.418;7.286;2023-03-24T07:17:50;98425.66;;;11.39;70.06
52855;BME280;38719;51.418;7.286;2023-03-24T07:20:18;98428.66;;;11.34;70.35
52855;BME280;38719;51.418;7.286;2023-03-24T07:22:47;98430.88;;;11.40;70.22
52855;BME280;38719;51.418;7.286;2023-03-24T07:25:14;98436.84;;;11.44;71.05
52855;BME280;38719;51.418;7.286;2023-03-24T07:27:45;98435.38;;;11.40;70.73
52855;BME280;38719;51.418;7.286;2023-03-24T07:30:13;98446.56;;;11.32;70.28
52855;BME280;38719;51.418;7.286;2023-03-24T07:32:41;98454.09;;;11.51;69.34
52855;BME280;38719;51.418;7.286;2023-03-24T07:35:10;98452.16;;;11.53;69.22
52855;BME280;38719;51.418;7.286;2023-03-24T07:37:38;98449.41;;;11.42;69.33
52855;BME280;38719;51.418;7.286;2023-03-24T07:40:10;98453.84;;;11.30;70.64
52855;BME280;38719;51.418;7.286;2023-03-24T07:42:38;98452.25;;;11.52;69.72
52855;BME280;38719;51.418;7.286;2023-03-24T07:45:08;98431.13;;;11.61;69.30
52855;BME280;38719;51.418;7.286;2023-03-24T07:47:36;98446.34;;;11.72;68.63
52855;BME280;38719;51.418;7.286;2023-03-24T07:50:05;98445.91;;;11.66;68.39
52855;BME280;38719;51.418;7.286;2023-03-24T07:52:35;98456.53;;;11.78;67.70
52855;BME280;38719;51.418;7.286;2023-03-24T07:55:04;98453.47;;;11.72;69.12
52855;BME280;38719;51.418;7.286;2023-03-24T07:57:33;98452.00;;;11.92;68.65
52855;BME280;38719;51.418;7.286;2023-03-24T08:00:03;98467.72;;;11.84;68.25
52855;BME280;38719;51.418;7.286;2023-03-24T08:02:35;98467.84;;;11.82;67.68
52855;BME280;38719;51.418;7.286;2023-03-24T08:05:03;98475.59;;;11.85;68.90
52855;BME280;38719;51.418;7.286;2023-03-24T08:07:31;98472.25;;;11.94;68.28
52855;BME280;38719;51.418;7.286;2023-03-24T08:09:59;98474.50;;;12.01;67.64
52855;BME280;38719;51.418;7.286;2023-03-24T08:12:27;98477.38;;;11.98;67.95
52855;BME280;38719;51.418;7.286;2023-03-24T08:14:55;98480.78;;;12.24;68.65
52855;BME280;38719;51.418;7.286;2023-03-24T08:17:23;98469.81;;;12.40;66.22
52855;BME280;38719;51.418;7.286;2023-03-24T08:19:51;98478.88;;;12.37;66.72
52855;BME280;38719;51.418;7.286;2023-03-24T08:22:26;98475.53;;;12.58;65.35
52855;BME280;38719;51.418;7.286;2023-03-24T08:24:54;98472.94;;;12.34;66.78
52855;BME280;38719;51.418;7.286;2023-03-24T08:27:21;98477.19;;;12.36;66.46
52855;BME280;38719;51.418;7.286;2023-03-24T08:29:49;98468.06;;;12.28;65.79
52855;BME280;38719;51.418;7.286;2023-03-24T08:32:18;98469.69;;;12.41;66.17
52855;BME280;38719;51.418;7.286;2023-03-24T08:34:45;98469.72;;;12.53;66.60
52855;BME280;38719;51.418;7.286;2023-03-24T08:37:13;98470.59;;;12.65;65.73
52855;BME280;38719;51.418;7.286;2023-03-24T08:39:40;98473.50;;;12.84;65.73
52855;BME280;38719;51.418;7.286;2023-03-24T08:42:08;98474.94;;;12.66;64.83
52855;BME280;38719;51.418;7.286;2023-03-24T08:44:35;98471.84;;;12.83;65.49
52855;BME280;38719;51.418;7.286;2023-03-24T08:47:03;98467.94;;;12.99;64.30
52855;BME280;38719;51.418;7.286;2023-03-24T08:49:32;98476.78;;;12.88;63.88
52855;BME280;38719;51.418;7.286;2023-03-24T08:52:00;98476.69;;;13.12;63.11
52855;BME280;38719;51.418;7.286;2023-03-24T08:54:27;98479.84;;;13.06;63.50
52855;BME280;38719;51.418;7.286;2023-03-24T08:56:55;98484.38;;;13.17;62.43
52855;BME280;38719;51.418;7.286;2023-03-24T08:59:22;98480.69;;;13.18;62.70
52855;BME280;38719;51.418;7.286;2023-03-24T09:01:50;98491.03;;;13.11;63.68
52855;BME280;38719;51.418;7.286;2023-03-24T09:04:17;98491.25;;;12.97;63.36
52855;BME280;38719;51.418;7.286;2023-03-24T09:06:46;98488.13;;;13.14;62.57
52855;BME280;38719;51.418;7.286;2023-03-24T09:09:15;98479.97;;;13.16;62.24
52855;BME280;38719;51.418;7.286;2023-03-24T09:11:42;98487.00;;;13.05;63.21
52855;BME280;38719;51.418;7.286;2023-03-24T09:14:10;98493.72;;;13.11;63.47
52855;BME280;38719;51.418;7.286;2023-03-24T09:16:37;98502.69;;;13.21;62.68
52855;BME280;38719;51.418;7.286;2023-03-24T09:19:05;98496.16;;;13.26;63.63
52855;BME280;38719;51.418;7.286;2023-03-24T09:21:33;98505.34;;;13.21;63.34
52855;BME280;38719;51.418;7.286;2023-03-24T09:24:03;98501.97;;;13.53;62.11
52855;BME280;38719;51.418;7.286;2023-03-24T09:26:30;98509.38;;;13.50;62.24
52855;BME280;38719;51.418;7.286;2023-03-24T09:28:59;98503.91;;;13.74;61.67
52855;BME280;38719;51.418;7.286;2023-03-24T09:31:26;98509.69;;;13.91;61.28
52855;BME280;38719;51.418;7.286;2023-03-24T09:33:54;98502.81;;;14.09;60.85
52855;BME280;38719;51.418;7.286;2023-03-24T09:36:21;98510.34;;;14.15;60.42
52855;BME280;38719;51.418;7.286;2023-03-24T09:38:49;98512.47;;;14.33;60.51
52855;BME280;38719;51.418;7.286;2023-03-24T09:41:20;98507.88;;;13.91;60.25
52855;BME280;38719;51.418;7.286;2023-03-24T09:43:51;98505.25;;;14.12;59.77
52855;BME280;38719;51.418;7.286;2023-03-24T09:46:25;98516.66;;;14.14;60.08
52855;BME280;38719;51.418;7.286;2023-03-24T09:48:55;98507.06;;;14.23;58.89
52855;BME280;38719;51.418;7.286;2023-03-24T09:51:24;98514.00;;;14.14;59.05
52855;BME280;38719;51.418;7.286;2023-03-24T09:53:58;98514.22;;;14.23;59.10
52855;BME280;38719;51.418;7.286;2023-03-24T09:56:31;98513.19;;;14.35;59.17
52855;BME280;38719;51.418;7.286;2023-03-24T09:59:03;98524.56;;;14.27;59.67
52855;BME280;38719;51.418;7.286;2023-03-24T10:01:33;98514.81;;;14.26;57.91
52855;BME280;38719;51.418;7.286;2023-03-24T10:04:01;98512.72;;;13.97;57.12
52855;BME280;38719;51.418;7.286;2023-03-24T10:06:30;98523.06;;;13.91;58.30
52855;BME280;38719;51.418;7.286;2023-03-24T10:09:11;98535.84;;;13.98;59.27
52855;BME280;38719;51.418;7.286;2023-03-24T10:11:47;98544.69;;;14.10;58.03
52855;BME280;38719;51.418;7.286;2023-03-24T10:14:27;98539.59;;;13.96;58.09
52855;BME280;38719;51.418;7.286;2023-03-24T10:17:07;98546.56;;;13.76;58.38
52855;BME280;38719;51.418;7.286;2023-03-24T10:19:43;98551.31;;;13.95;58.97
52855;BME280;38719;51.418;7.286;2023-03-24T10:22:17;98556.66;;;13.95;58.02
52855;BME280;38719;51.418;7.286;2023-03-24T10:24:51;98553.47;;;13.90;58.46
52855;BME280;38719;51.418;7.286;2023-03-24T10:27:27;98554.44;;;14.00;59.06
52855;BME280;38719;51.418;7.286;2023-03-24T10:29:59;98555.56;;;14.30;57.55
52855;BME280;38719;51.418;7.286;2023-03-24T10:32:32;98559.16;;;14.08;57.84
52855;BME280;38719;51.418;7.286;2023-03-24T10:35:01;98565.50;;;14.07;56.89
52855;BME280;38719;51.418;7.286;2023-03-24T10:37:36;98559.72;;;14.23;56.46
52855;BME280;38719;51.418;7.286;2023-03-24T10:40:12;98557.31;;;14.08;57.01
52855;BME280;38719;51.418;7.286;2023-03-24T10:42:43;98556.16;;;14.01;57.38
52855;BME280;38719;51.418;7.286;2023-03-24T10:45:19;98550.47;;;14.27;57.53
52855;BME280;38719;51.418;7.286;2023-03-24T10:47:52;98565.47;;;14.18;57.02
52855;BME280;38719;51.418;7.286;2023-03-24T10:50:23;98553.28;;;14.25;55.85
52855;BME280;38719;51.418;7.286;2023-03-24T10:52:51;98565.84;;;14.13;56.13
52855;BME280;38719;51.418;7.286;2023-03-24T10:55:22;98566.81;;;14.12;57.02
52855;BME280;38719;51.418;7.286;2023-03-24T10:57:55;98554.56;;;14.42;55.88
52855;BME280;38719;51.418;7.286;2023-03-24T11:00:25;98558.34;;;14.40;55.47
52855;BME280;38719;51.418;7.286;2023-03-24T11:02:57;98560.41;;;14.36;57.29
52855;BME280;38719;51.418;7.286;2023-03-24T11:05:27;98564.38;;;14.53;55.75
52855;BME280;38719;51.418;7.286;2023-03-24T11:08:09;98553.56;;;14.76;55.87
52855;BME280;38719;51.418;7.286;2023-03-24T11:10:38;98563.78;;;15.03;55.90
52855;BME280;38719;51.418;7.286;2023-03-24T11:13:16;98560.78;;;15.48;55.01
52855;BME280;38719;51.418;7.286;2023-03-24T11:15:55;98568.06;;;15.77;52.47
52855;BME280;38719;51.418;7.286;2023-03-24T11:18:26;98582.31;;;15.68;52.12
52855;BME280;38719;51.418;7.286;2023-03-24T11:20:57;98568.16;;;15.87;52.58
52855;BME280;38719;51.418;7.286;2023-03-24T11:23:28;98562.63;;;15.89;52.49
52855;BME280;38719;51.418;7.286;2023-03-24T11:26:13;98571.25;;;15.61;51.69
52855;BME280;38719;51.418;7.286;2023-03-24T11:28:45;98572.72;;;15.97;51.84
52855;BME280;38719;51.418;7.286;2023-03-24T11:31:21;98578.84;;;16.38;52.55
52855;BME280;38719;51.418;7.286;2023-03-24T11:33:54;98560.78;;;16.50;50.94
52855;BME280;38719;51.418;7.286;2023-03-24T11:36:40;98558.34;;;16.47;51.81
52855;BME280;38719;51.418;7.286;2023-03-24T11:39:15;98567.38;;;16.16;50.06
52855;BME280;38719;51.418;7.286;2023-03-24T11:41:52;98571.03;;;16.05;51.18
52855;BME280;38719;51.418;7.286;2023-03-24T11:44:30;98576.53;;;16.14;51.39
52855;BME280;38719;51.418;7.286;2023-03-24T11:47:01;98579.78;;;16.07;49.75
52855;BME280;38719;51.418;7.286;2023-03-24T11:49:30;98576.63;;;15.92;50.32
52855;BME280;38719;51.418;7.286;2023-03-24T11:51:59;98569.06;;;15.45;50.79
52855;BME280;38719;51.418;7.286;2023-03-24T11:54:32;98584.28;;;15.35;51.45
52855;BME280;38719;51.418;7.286;2023-03-24T11:57:03;98566.97;;;15.18;52.20
52855;BME280;38719;51.418;7.286;2023-03-24T11:59:39;98575.00;;;15.18;52.59
52855;BME280;38719;51.418;7.286;2023-03-24T12:02:12;98587.69;;;15.37;52.18
52855;BME280;38719;51.418;7.286;2023-03-24T12:04:55;98572.91;;;15.22;52.39
52855;BME280;38719;51.418;7.286;2023-03-24T12:07:48;98576.78;;;15.08;51.96
52855;BME280;38719;51.418;7.286;2023-03-24T12:10:25;98575.81;;;15.09;51.11
52855;BME280;38719;51.418;7.286;2023-03-24T12:13:01;98569.59;;;15.08;50.66
52855;BME280;38719;51.418;7.286;2023-03-24T12:15:40;98573.72;;;15.12;52.02
52855;BME280;38719;51.418;7.286;2023-03-24T12:18:38;98581.59;;;15.35;51.84
52855;BME280;38719;51.418;7.286;2023-03-24T12:21:15;98567.56;;;15.53;50.51
52855;BME280;38719;51.418;7.286;2023-03-24T12:23:56;98575.16;;;15.17;51.05
52855;BME280;38719;51.418;7.286;2023-03-24T12:26:25;98564.88;;;15.53;52.00
52855;BME280;38719;51.418;7.286;2023-03-24T12:29:05;98562.56;;;15.38;50.06
52855;BME280;38719;51.418;7.286;2023-03-24T12:32:04;98565.31;;;15.58;50.85
52855;BME280;38719;51.418;7.286;2023-03-24T12:37:42;98563.81;;;15.65;49.78
52855;BME280;38719;51.418;7.286;2023-03-24T12:40:36;98562.19;;;15.53;51.61
52855;BME280;38719;51.418;7.286;2023-03-24T12:43:16;98554.78;;;15.35;50.77
52855;BME280;38719;51.418;7.286;2023-03-24T12:45:47;98549.66;;;15.01;50.96
52855;BME280;38719;51.418;7.286;2023-03-24T12:48:40;98559.31;;;15.35;50.91
52855;BME280;38719;51.418;7.286;2023-03-24T12:51:20;98551.31;;;15.44;50.04
52855;BME280;38719;51.418;7.286;2023-03-24T12:54:02;98550.28;;;15.76;49.59
52855;BME280;38719;51.418;7.286;2023-03-24T12:56:36;98542.47;;;16.04;48.94
52855;BME280;38719;51.418;7.286;2023-03-24T12:59:10;98545.53;;;15.90;49.80
52855;BME280;38719;51.418;7.286;2023-03-24T13:01:42;98528.53;;;16.30;47.21
52855;BME280;38719;51.418;7.286;2023-03-24T13:04:16;98544.75;;;16.09;46.72
52855;BME280;38719;51.418;7.286;2023-03-24T13:06:47;98552.38;;;16.04;47.40
52855;BME280;38719;51.418;7.286;2023-03-24T13:09:24;98535.38;;;15.53;48.34
52855;BME280;38719;51.418;7.286;2023-03-24T13:12:00;98529.91;;;15.64;48.48
52855;BME280;38719;51.418;7.286;2023-03-24T13:14:40;98532.47;;;16.06;48.38
52855;BME280;38719;51.418;7.286;2023-03-24T13:17:16;98530.31;;;16.00;46.98
52855;BME280;38719;51.418;7.286;2023-03-24T13:19:48;98533.91;;;15.79;46.76
52855;BME280;38719;51.418;7.286;2023-03-24T13:22:17;98528.84;;;15.45;46.60
52855;BME280;38719;51.418;7.286;2023-03-24T13:24:47;98533.75;;;15.09;47.51
52855;BME280;38719;51.418;7.286;2023-03-24T13:27:18;98520.44;;;14.98;48.74
52855;BME280;38719;51.418;7.286;2023-03-24T13:30:02;98555.88;;;14.80;51.85